sensor_id;sensor_type;location;lat;lon;timestamp;P1;P2;P0
85187;PMS5003;75557;51.048;-0.424;2024-01-25T00:00:19;12;9;
85187;PMS5003;75557;51.048;-0.424;2024-01-25T00:02:45;7;7;
85187;PMS5003;75557;51.048;-0.424;2024-01-25T00:05:11;7;7;
85187;PMS5003;75557;51.048;-0.424;2024-01-25T00:07:44;6;5;
85187;PMS5003;75557;51.048;-0.424;2024-01-25T00:10:02;9;8;
85187;PMS5003;75557;51.048;-0.424;2024-01-25T00:12:27;4;4;
85187;PMS5003;75557;51.048;-0.424;2024-01-25T00:14:53;6;5;
85187;PMS5003;75557;51.048;-0.424;2024-01-25T00:17:18;6;6;
85187;PMS5003;75557;51.048;-0.424;2024-01-25T00:19:44;6;4;
85187;PMS5003;75557;51.048;-0.424;2024-01-25T00:22:09;10;8;
85187;PMS5003;75557;51.048;-0.424;2024-01-25T00:24:35;6;6;
85187;PMS5003;75557;51.048;-0.424;2024-01-25T00:27:00;4;4;
85187;PMS5003;75557;51.048;-0.424;2024-01-25T00:29:26;8;8;
85187;PMS5003;75557;51.048;-0.424;2024-01-25T00:31:52;5;5;
85187;PMS5003;75557;51.048;-0.424;2024-01-25T00:34:17;9;7;
85187;PMS5003;75557;51.048;-0.424;2024-01-25T00:36:43;5;5;
85187;PMS5003;75557;51.048;-0.424;2024-01-25T00:39:08;5;5;
85187;PMS5003;75557;51.048;-0.424;2024-01-25T00:41:34;5;5;
85187;PMS5003;75557;51.048;-0.424;2024-01-25T00:44:00;5;4;
85187;PMS5003;75557;51.048;-0.424;2024-01-25T00:46:25;5;5;
85187;PMS5003;75557;51.048;-0.424;2024-01-25T00:48:51;9;5;
85187;PMS5003;75557;51.048;-0.424;2024-01-25T00:51:17;5;5;
85187;PMS5003;75557;51.048;-0.424;2024-01-25T00:53:42;4;4;
85187;PMS5003;75557;51.048;-0.424;2024-01-25T00:56:08;6;6;
85187;PMS5003;75557;51.048;-0.424;2024-01-25T00:58:33;4;4;
85187;PMS5003;75557;51.048;-0.424;2024-01-25T01:00:59;7;7;
85187;PMS5003;75557;51.048;-0.424;2024-01-25T01:03:24;9;6;
85187;PMS5003;75557;51.048;-0.424;2024-01-25T01:05:49;5;5;
85187;PMS5003;75557;51.048;-0.424;2024-01-25T01:08:15;8;6;
85187;PMS5003;75557;51.048;-0.424;2024-01-25T01:10:40;6;4;
85187;PMS5003;75557;51.048;-0.424;2024-01-25T01:13:06;4;4;
85187;PMS5003;75557;51.048;-0.424;2024-01-25T01:15:32;4;4;
85187;PMS5003;75557;51.048;-0.424;2024-01-25T01:17:57;3;3;
85187;PMS5003;75557;51.048;-0.424;2024-01-25T01:20:23;4;4;
85187;PMS5003;75557;51.048;-0.424;2024-01-25T01:22:48;4;3;
85187;PMS5003;75557;51.048;-0.424;2024-01-25T01:25:14;4;4;
85187;PMS5003;75557;51.048;-0.424;2024-01-25T01:27:39;5;5;
85187;PMS5003;75557;51.048;-0.424;2024-01-25T01:30:05;4;4;
85187;PMS5003;75557;51.048;-0.424;2024-01-25T01:32:30;7;5;
85187;PMS5003;75557;51.048;-0.424;2024-01-25T01:34:56;5;5;
85187;PMS5003;75557;51.048;-0.424;2024-01-25T01:37:21;5;4;
85187;PMS5003;75557;51.048;-0.424;2024-01-25T01:39:47;6;6;
85187;PMS5003;75557;51.048;-0.424;2024-01-25T01:42:13;5;5;
85187;PMS5003;75557;51.048;-0.424;2024-01-25T01:44:38;5;5;
85187;PMS5003;75557;51.048;-0.424;2024-01-25T01:47:04;5;5;
85187;PMS5003;75557;51.048;-0.424;2024-01-25T01:49:29;4;4;
85187;PMS5003;75557;51.048;-0.424;2024-01-25T01:51:55;5;5;
85187;PMS5003;75557;51.048;-0.424;2024-01-25T01:54:20;5;4;
85187;PMS5003;75557;51.048;-0.424;2024-01-25T01:56:46;9;6;
85187;PMS5003;75557;51.048;-0.424;2024-01-25T01:59:12;4;4;
85187;PMS5003;75557;51.048;-0.424;2024-01-25T02:01:37;5;4;
85187;PMS5003;75557;51.048;-0.424;2024-01-25T02:04:03;6;6;
85187;PMS5003;75557;51.048;-0.424;2024-01-25T02:06:28;5;5;
85187;PMS5003;75557;51.048;-0.424;2024-01-25T02:08:54;3;3;
85187;PMS5003;75557;51.048;-0.424;2024-01-25T02:11:20;6;6;
85187;PMS5003;75557;51.048;-0.424;2024-01-25T02:13:45;6;5;
85187;PMS5003;75557;51.048;-0.424;2024-01-25T02:16:10;4;3;
85187;PMS5003;75557;51.048;-0.424;2024-01-25T02:18:36;3;3;
85187;PMS5003;75557;51.048;-0.424;2024-01-25T02:21:02;6;5;
85187;PMS5003;75557;51.048;-0.424;2024-01-25T02:23:27;10;7;
85187;PMS5003;75557;51.048;-0.424;2024-01-25T02:25:53;6;5;
85187;PMS5003;75557;51.048;-0.424;2024-01-25T02:28:18;4;3;
85187;PMS5003;75557;51.048;-0.424;2024-01-25T02:30:44;10;8;
85187;PMS5003;75557;51.048;-0.424;2024-01-25T02:33:09;8;8;
85187;PMS5003;75557;51.048;-0.424;2024-01-25T02:35:35;10;7;
85187;PMS5003;75557;51.048;-0.424;2024-01-25T02:38:00;6;5;
85187;PMS5003;75557;51.048;-0.424;2024-01-25T02:40:26;5;5;
85187;PMS5003;75557;51.048;-0.424;2024-01-25T02:42:52;6;6;
85187;PMS5003;75557;51.048;-0.424;2024-01-25T02:45:17;4;4;
85187;PMS5003;75557;51.048;-0.424;2024-01-25T02:47:43;6;4;
85187;PMS5003;75557;51.048;-0.424;2024-01-25T02:50:08;4;4;
85187;PMS5003;75557;51.048;-0.424;2024-01-25T02:52:34;6;5;
85187;PMS5003;75557;51.048;-0.424;2024-01-25T02:54:59;4;4;
85187;PMS5003;75557;51.048;-0.424;2024-01-25T02:57:25;7;4;
85187;PMS5003;75557;51.048;-0.424;2024-01-25T02:59:50;4;4;
85187;PMS5003;75557;51.048;-0.424;2024-01-25T03:02:17;6;6;
85187;PMS5003;75557;51.048;-0.424;2024-01-25T03:04:41;11;10;
85187;PMS5003;75557;51.048;-0.424;2024-01-25T03:07:07;6;6;
85187;PMS5003;75557;51.048;-0.424;2024-01-25T03:09:32;7;6;
85187;PMS5003;75557;51.048;-0.424;2024-01-25T03:11:58;5;5;
85187;PMS5003;75557;51.048;-0.424;2024-01-25T03:14:23;6;5;
85187;PMS5003;75557;51.048;-0.424;2024-01-25T03:16:49;5;5;
85187;PMS5003;75557;51.048;-0.424;2024-01-25T03:19:14;4;4;
85187;PMS5003;75557;51.048;-0.424;2024-01-25T03:21:40;7;6;
85187;PMS5003;75557;51.048;-0.424;2024-01-25T03:24:06;3;3;
85187;PMS5003;75557;51.048;-0.424;2024-01-25T03:26:34;7;7;
85187;PMS5003;75557;51.048;-0.424;2024-01-25T03:28:57;8;4;
85187;PMS5003;75557;51.048;-0.424;2024-01-25T03:31:22;5;5;
85187;PMS5003;75557;51.048;-0.424;2024-01-25T03:33:48;5;5;
85187;PMS5003;75557;51.048;-0.424;2024-01-25T03:36:14;8;5;
85187;PMS5003;75557;51.048;-0.424;2024-01-25T03:38:39;5;5;
85187;PMS5003;75557;51.048;-0.424;2024-01-25T03:41:05;6;5;
85187;PMS5003;75557;51.048;-0.424;2024-01-25T03:43:30;3;3;
85187;PMS5003;75557;51.048;-0.424;2024-01-25T03:45:56;8;4;
85187;PMS5003;75557;51.048;-0.424;2024-01-25T03:48:21;5;5;
85187;PMS5003;75557;51.048;-0.424;2024-01-25T03:50:46;4;4;
85187;PMS5003;75557;51.048;-0.424;2024-01-25T03:53:12;4;4;
85187;PMS5003;75557;51.048;-0.424;2024-01-25T03:55:38;6;5;
85187;PMS5003;75557;51.048;-0.424;2024-01-25T03:58:03;7;6;
85187;PMS5003;75557;51.048;-0.424;2024-01-25T04:00:29;7;6;
85187;PMS5003;75557;51.048;-0.424;2024-01-25T04:02:54;4;4;
85187;PMS5003;75557;51.048;-0.424;2024-01-25T04:05:20;6;5;
85187;PMS5003;75557;51.048;-0.424;2024-01-25T04:07:45;7;7;
85187;PMS5003;75557;51.048;-0.424;2024-01-25T04:10:11;5;5;
85187;PMS5003;75557;51.048;-0.424;2024-01-25T04:12:36;5;5;
85187;PMS5003;75557;51.048;-0.424;2024-01-25T04:15:02;7;6;
85187;PMS5003;75557;51.048;-0.424;2024-01-25T04:17:28;6;6;
85187;PMS5003;75557;51.048;-0.424;2024-01-25T04:19:53;7;5;
85187;PMS5003;75557;51.048;-0.424;2024-01-25T04:22:19;6;6;
85187;PMS5003;75557;51.048;-0.424;2024-01-25T04:24:44;6;5;
85187;PMS5003;75557;51.048;-0.424;2024-01-25T04:27:10;6;6;
85187;PMS5003;75557;51.048;-0.424;2024-01-25T04:29:37;6;6;
85187;PMS5003;75557;51.048;-0.424;2024-01-25T04:32:01;5;5;
85187;PMS5003;75557;51.048;-0.424;2024-01-25T04:34:26;9;5;
85187;PMS5003;75557;51.048;-0.424;2024-01-25T04:36:52;6;6;
85187;PMS5003;75557;51.048;-0.424;2024-01-25T04:39:18;6;6;
85187;PMS5003;75557;51.048;-0.424;2024-01-25T04:41:43;9;7;
85187;PMS5003;75557;51.048;-0.424;2024-01-25T04:44:09;6;5;
85187;PMS5003;75557;51.048;-0.424;2024-01-25T04:46:34;6;5;
85187;PMS5003;75557;51.048;-0.424;2024-01-25T04:49:00;4;4;
85187;PMS5003;75557;51.048;-0.424;2024-01-25T04:51:25;5;5;
85187;PMS5003;75557;51.048;-0.424;2024-01-25T04:53:51;7;7;
85187;PMS5003;75557;51.048;-0.424;2024-01-25T04:56:17;5;4;
85187;PMS5003;75557;51.048;-0.424;2024-01-25T04:58:42;10;6;
85187;PMS5003;75557;51.048;-0.424;2024-01-25T05:01:08;5;5;
85187;PMS5003;75557;51.048;-0.424;2024-01-25T05:03:33;4;2;
85187;PMS5003;75557;51.048;-0.424;2024-01-25T05:05:59;4;3;
85187;PMS5003;75557;51.048;-0.424;2024-01-25T05:08:24;7;6;
85187;PMS5003;75557;51.048;-0.424;2024-01-25T05:10:50;6;5;
85187;PMS5003;75557;51.048;-0.424;2024-01-25T05:13:15;5;5;
85187;PMS5003;75557;51.048;-0.424;2024-01-25T05:15:41;7;5;
85187;PMS5003;75557;51.048;-0.424;2024-01-25T05:18:07;7;5;
85187;PMS5003;75557;51.048;-0.424;2024-01-25T05:20:32;4;4;
85187;PMS5003;75557;51.048;-0.424;2024-01-25T05:22:58;5;4;
85187;PMS5003;75557;51.048;-0.424;2024-01-25T05:25:23;2;2;
85187;PMS5003;75557;51.048;-0.424;2024-01-25T05:27:49;5;4;
85187;PMS5003;75557;51.048;-0.424;2024-01-25T05:30:14;7;4;
85187;PMS5003;75557;51.048;-0.424;2024-01-25T05:32:40;6;5;
85187;PMS5003;75557;51.048;-0.424;2024-01-25T05:35:06;8;5;
85187;PMS5003;75557;51.048;-0.424;2024-01-25T05:37:31;4;4;
85187;PMS5003;75557;51.048;-0.424;2024-01-25T05:39:56;5;5;
85187;PMS5003;75557;51.048;-0.424;2024-01-25T05:42:22;6;6;
85187;PMS5003;75557;51.048;-0.424;2024-01-25T05:44:48;4;4;
85187;PMS5003;75557;51.048;-0.424;2024-01-25T05:47:13;3;3;
85187;PMS5003;75557;51.048;-0.424;2024-01-25T05:49:39;4;4;
85187;PMS5003;75557;51.048;-0.424;2024-01-25T05:52:05;4;1;
85187;PMS5003;75557;51.048;-0.424;2024-01-25T05:54:30;4;3;
85187;PMS5003;75557;51.048;-0.424;2024-01-25T05:56:55;3;2;
85187;PMS5003;75557;51.048;-0.424;2024-01-25T05:59:21;4;4;
85187;PMS5003;75557;51.048;-0.424;2024-01-25T06:01:46;6;4;
85187;PMS5003;75557;51.048;-0.424;2024-01-25T06:04:12;5;5;
85187;PMS5003;75557;51.048;-0.424;2024-01-25T06:06:38;4;4;
85187;PMS5003;75557;51.048;-0.424;2024-01-25T06:09:04;4;4;
85187;PMS5003;75557;51.048;-0.424;2024-01-25T06:11:29;5;3;
85187;PMS5003;75557;51.048;-0.424;2024-01-25T06:13:54;7;3;
85187;PMS5003;75557;51.048;-0.424;2024-01-25T06:16:20;3;3;
85187;PMS5003;75557;51.048;-0.424;2024-01-25T06:18:46;7;3;
85187;PMS5003;75557;51.048;-0.424;2024-01-25T06:21:11;6;6;
85187;PMS5003;75557;51.048;-0.424;2024-01-25T06:23:37;3;3;
85187;PMS5003;75557;51.048;-0.424;2024-01-25T06:26:02;5;4;
85187;PMS5003;75557;51.048;-0.424;2024-01-25T06:28:28;4;3;
85187;PMS5003;75557;51.048;-0.424;2024-01-25T06:30:53;3;3;
85187;PMS5003;75557;51.048;-0.424;2024-01-25T06:33:19;4;3;
85187;PMS5003;75557;51.048;-0.424;2024-01-25T06:35:44;4;2;
85187;PMS5003;75557;51.048;-0.424;2024-01-25T06:38:10;4;3;
85187;PMS5003;75557;51.048;-0.424;2024-01-25T06:40:35;4;3;
85187;PMS5003;75557;51.048;-0.424;2024-01-25T06:43:01;2;2;
85187;PMS5003;75557;51.048;-0.424;2024-01-25T06:45:27;3;3;
85187;PMS5003;75557;51.048;-0.424;2024-01-25T06:47:52;5;4;
85187;PMS5003;75557;51.048;-0.424;2024-01-25T06:50:18;3;3;
85187;PMS5003;75557;51.048;-0.424;2024-01-25T06:52:43;2;2;
85187;PMS5003;75557;51.048;-0.424;2024-01-25T06:55:09;4;2;
85187;PMS5003;75557;51.048;-0.424;2024-01-25T06:57:34;1;1;
85187;PMS5003;75557;51.048;-0.424;2024-01-25T07:00:00;4;3;
85187;PMS5003;75557;51.048;-0.424;2024-01-25T07:02:26;2;2;
85187;PMS5003;75557;51.048;-0.424;2024-01-25T07:04:51;2;2;
85187;PMS5003;75557;51.048;-0.424;2024-01-25T07:07:17;2;2;
85187;PMS5003;75557;51.048;-0.424;2024-01-25T07:09:42;2;2;
85187;PMS5003;75557;51.048;-0.424;2024-01-25T07:12:08;3;1;
85187;PMS5003;75557;51.048;-0.424;2024-01-25T07:14:33;2;2;
85187;PMS5003;75557;51.048;-0.424;2024-01-25T07:16:59;2;1;
85187;PMS5003;75557;51.048;-0.424;2024-01-25T07:19:24;5;4;
85187;PMS5003;75557;51.048;-0.424;2024-01-25T07:21:50;2;2;
85187;PMS5003;75557;51.048;-0.424;2024-01-25T07:24:16;3;1;
85187;PMS5003;75557;51.048;-0.424;2024-01-25T07:26:41;1;1;
85187;PMS5003;75557;51.048;-0.424;2024-01-25T07:29:07;6;4;
85187;PMS5003;75557;51.048;-0.424;2024-01-25T07:31:32;3;2;
85187;PMS5003;75557;51.048;-0.424;2024-01-25T07:33:58;3;1;
85187;PMS5003;75557;51.048;-0.424;2024-01-25T07:36:23;3;3;
85187;PMS5003;75557;51.048;-0.424;2024-01-25T07:38:49;1;0;
85187;PMS5003;75557;51.048;-0.424;2024-01-25T07:41:15;3;3;
85187;PMS5003;75557;51.048;-0.424;2024-01-25T07:43:40;3;2;
85187;PMS5003;75557;51.048;-0.424;2024-01-25T07:46:06;2;2;
85187;PMS5003;75557;51.048;-0.424;2024-01-25T07:48:31;2;2;
85187;PMS5003;75557;51.048;-0.424;2024-01-25T07:50:57;2;1;
85187;PMS5003;75557;51.048;-0.424;2024-01-25T07:53:22;1;0;
85187;PMS5003;75557;51.048;-0.424;2024-01-25T07:55:48;2;2;
85187;PMS5003;75557;51.048;-0.424;2024-01-25T07:58:14;2;2;
85187;PMS5003;75557;51.048;-0.424;2024-01-25T08:00:39;2;1;
85187;PMS5003;75557;51.048;-0.424;2024-01-25T08:03:05;4;2;
85187;PMS5003;75557;51.048;-0.424;2024-01-25T08:05:30;0;0;
85187;PMS5003;75557;51.048;-0.424;2024-01-25T08:07:56;2;2;
85187;PMS5003;75557;51.048;-0.424;2024-01-25T08:10:21;3;3;
85187;PMS5003;75557;51.048;-0.424;2024-01-25T08:12:47;1;0;
85187;PMS5003;75557;51.048;-0.424;2024-01-25T08:15:13;1;1;
85187;PMS5003;75557;51.048;-0.424;2024-01-25T08:17:38;2;1;
85187;PMS5003;75557;51.048;-0.424;2024-01-25T08:20:04;2;2;
85187;PMS5003;75557;51.048;-0.424;2024-01-25T08:22:29;3;3;
85187;PMS5003;75557;51.048;-0.424;2024-01-25T08:24:55;2;2;
85187;PMS5003;75557;51.048;-0.424;2024-01-25T08:27:20;1;1;
85187;PMS5003;75557;51.048;-0.424;2024-01-25T08:29:46;2;2;
85187;PMS5003;75557;51.048;-0.424;2024-01-25T08:32:11;1;1;
85187;PMS5003;75557;51.048;-0.424;2024-01-25T08:34:37;2;2;
85187;PMS5003;75557;51.048;-0.424;2024-01-25T08:37:03;3;1;
85187;PMS5003;75557;51.048;-0.424;2024-01-25T08:39:28;1;1;
85187;PMS5003;75557;51.048;-0.424;2024-01-25T08:41:54;1;1;
85187;PMS5003;75557;51.048;-0.424;2024-01-25T08:44:19;2;2;
85187;PMS5003;75557;51.048;-0.424;2024-01-25T08:46:45;1;1;
85187;PMS5003;75557;51.048;-0.424;2024-01-25T08:49:10;1;1;
85187;PMS5003;75557;51.048;-0.424;2024-01-25T08:51:36;1;1;
85187;PMS5003;75557;51.048;-0.424;2024-01-25T08:54:01;3;2;
85187;PMS5003;75557;51.048;-0.424;2024-01-25T08:56:27;2;2;
85187;PMS5003;75557;51.048;-0.424;2024-01-25T08:58:53;2;2;
85187;PMS5003;75557;51.048;-0.424;2024-01-25T09:01:18;2;1;
85187;PMS5003;75557;51.048;-0.424;2024-01-25T09:03:44;1;1;
85187;PMS5003;75557;51.048;-0.424;2024-01-25T09:06:09;1;1;
85187;PMS5003;75557;51.048;-0.424;2024-01-25T09:08:35;1;1;
85187;PMS5003;75557;51.048;-0.424;2024-01-25T09:11:00;1;1;
85187;PMS5003;75557;51.048;-0.424;2024-01-25T09:13:26;1;0;
85187;PMS5003;75557;51.048;-0.424;2024-01-25T09:15:51;1;0;
85187;PMS5003;75557;51.048;-0.424;2024-01-25T09:18:17;2;2;
85187;PMS5003;75557;51.048;-0.424;2024-01-25T09:20:42;1;1;
85187;PMS5003;75557;51.048;-0.424;2024-01-25T09:23:08;2;2;
85187;PMS5003;75557;51.048;-0.424;2024-01-25T09:25:33;3;1;
85187;PMS5003;75557;51.048;-0.424;2024-01-25T09:28:00;2;2;
85187;PMS5003;75557;51.048;-0.424;2024-01-25T09:30:25;0;0;
85187;PMS5003;75557;51.048;-0.424;2024-01-25T09:32:50;4;2;
85187;PMS5003;75557;51.048;-0.424;2024-01-25T09:35:16;4;1;
85187;PMS5003;75557;51.048;-0.424;2024-01-25T09:37:41;2;2;
85187;PMS5003;75557;51.048;-0.424;2024-01-25T09:40:07;2;2;
85187;PMS5003;75557;51.048;-0.424;2024-01-25T09:42:32;2;1;
85187;PMS5003;75557;51.048;-0.424;2024-01-25T09:44:58;1;1;
85187;PMS5003;75557;51.048;-0.424;2024-01-25T09:47:23;5;1;
85187;PMS5003;75557;51.048;-0.424;2024-01-25T09:49:49;1;1;
85187;PMS5003;75557;51.048;-0.424;2024-01-25T09:52:15;2;1;
85187;PMS5003;75557;51.048;-0.424;2024-01-25T09:54:40;2;2;
85187;PMS5003;75557;51.048;-0.424;2024-01-25T09:57:08;1;1;
85187;PMS5003;75557;51.048;-0.424;2024-01-25T09:59:31;1;1;
85187;PMS5003;75557;51.048;-0.424;2024-01-25T10:01:57;3;2;
85187;PMS5003;75557;51.048;-0.424;2024-01-25T10:04:22;3;1;
85187;PMS5003;75557;51.048;-0.424;2024-01-25T10:06:48;1;1;
85187;PMS5003;75557;51.048;-0.424;2024-01-25T10:09:14;2;2;
85187;PMS5003;75557;51.048;-0.424;2024-01-25T10:11:39;1;1;
85187;PMS5003;75557;51.048;-0.424;2024-01-25T10:14:05;1;1;
85187;PMS5003;75557;51.048;-0.424;2024-01-25T10:16:30;1;1;
85187;PMS5003;75557;51.048;-0.424;2024-01-25T10:18:56;2;2;
85187;PMS5003;75557;51.048;-0.424;2024-01-25T10:21:22;1;1;
85187;PMS5003;75557;51.048;-0.424;2024-01-25T10:23:47;0;0;
85187;PMS5003;75557;51.048;-0.424;2024-01-25T10:26:13;1;1;
85187;PMS5003;75557;51.048;-0.424;2024-01-25T10:28:38;2;2;
85187;PMS5003;75557;51.048;-0.424;2024-01-25T10:31:04;1;1;
85187;PMS5003;75557;51.048;-0.424;2024-01-25T10:33:30;2;1;
85187;PMS5003;75557;51.048;-0.424;2024-01-25T10:35:55;2;2;
85187;PMS5003;75557;51.048;-0.424;2024-01-25T10:38:20;2;2;
85187;PMS5003;75557;51.048;-0.424;2024-01-25T10:40:46;2;2;
85187;PMS5003;75557;51.048;-0.424;2024-01-25T10:43:11;4;2;
85187;PMS5003;75557;51.048;-0.424;2024-01-25T10:45:37;0;0;
85187;PMS5003;75557;51.048;-0.424;2024-01-25T10:48:03;2;1;
85187;PMS5003;75557;51.048;-0.424;2024-01-25T10:50:28;2;2;
85187;PMS5003;75557;51.048;-0.424;2024-01-25T10:52:54;3;2;
85187;PMS5003;75557;51.048;-0.424;2024-01-25T10:55:19;2;2;
85187;PMS5003;75557;51.048;-0.424;2024-01-25T10:57:45;2;2;
85187;PMS5003;75557;51.048;-0.424;2024-01-25T11:00:11;2;2;
85187;PMS5003;75557;51.048;-0.424;2024-01-25T11:02:36;2;2;
85187;PMS5003;75557;51.048;-0.424;2024-01-25T11:05:01;3;2;
85187;PMS5003;75557;51.048;-0.424;2024-01-25T11:07:27;1;1;
85187;PMS5003;75557;51.048;-0.424;2024-01-25T11:09:53;2;2;
85187;PMS5003;75557;51.048;-0.424;2024-01-25T11:12:19;2;2;
85187;PMS5003;75557;51.048;-0.424;2024-01-25T11:14:44;2;1;
85187;PMS5003;75557;51.048;-0.424;2024-01-25T11:17:18;1;1;
85187;PMS5003;75557;51.048;-0.424;2024-01-25T11:19:35;1;1;
85187;PMS5003;75557;51.048;-0.424;2024-01-25T11:22:02;2;2;
85187;PMS5003;75557;51.048;-0.424;2024-01-25T11:24:26;2;1;
85187;PMS5003;75557;51.048;-0.424;2024-01-25T11:26:53;2;1;
85187;PMS5003;75557;51.048;-0.424;2024-01-25T11:29:18;1;1;
85187;PMS5003;75557;51.048;-0.424;2024-01-25T11:31:43;2;2;
85187;PMS5003;75557;51.048;-0.424;2024-01-25T11:34:09;3;2;
85187;PMS5003;75557;51.048;-0.424;2024-01-25T11:36:34;1;1;
85187;PMS5003;75557;51.048;-0.424;2024-01-25T11:38:59;0;0;
85187;PMS5003;75557;51.048;-0.424;2024-01-25T11:41:25;1;1;
85187;PMS5003;75557;51.048;-0.424;2024-01-25T11:43:50;1;1;
85187;PMS5003;75557;51.048;-0.424;2024-01-25T11:46:16;2;2;
85187;PMS5003;75557;51.048;-0.424;2024-01-25T11:48:42;2;1;
85187;PMS5003;75557;51.048;-0.424;2024-01-25T11:51:08;1;1;
85187;PMS5003;75557;51.048;-0.424;2024-01-25T11:53:33;2;2;
85187;PMS5003;75557;51.048;-0.424;2024-01-25T11:55:58;2;1;
85187;PMS5003;75557;51.048;-0.424;2024-01-25T11:58:24;2;1;
85187;PMS5003;75557;51.048;-0.424;2024-01-25T12:00:50;1;1;
85187;PMS5003;75557;51.048;-0.424;2024-01-25T12:03:15;1;1;
85187;PMS5003;75557;51.048;-0.424;2024-01-25T12:05:41;0;0;
85187;PMS5003;75557;51.048;-0.424;2024-01-25T12:08:08;4;2;
85187;PMS5003;75557;51.048;-0.424;2024-01-25T12:10:32;2;2;
85187;PMS5003;75557;51.048;-0.424;2024-01-25T12:12:57;1;1;
85187;PMS5003;75557;51.048;-0.424;2024-01-25T12:15:23;2;2;
85187;PMS5003;75557;51.048;-0.424;2024-01-25T12:17:48;2;2;
85187;PMS5003;75557;51.048;-0.424;2024-01-25T12:20:14;2;2;
85187;PMS5003;75557;51.048;-0.424;2024-01-25T12:22:40;4;2;
85187;PMS5003;75557;51.048;-0.424;2024-01-25T12:25:07;2;2;
85187;PMS5003;75557;51.048;-0.424;2024-01-25T12:27:31;5;3;
85187;PMS5003;75557;51.048;-0.424;2024-01-25T12:29:56;2;2;
85187;PMS5003;75557;51.048;-0.424;2024-01-25T12:32:22;0;0;
85187;PMS5003;75557;51.048;-0.424;2024-01-25T12:34:55;4;2;
85187;PMS5003;75557;51.048;-0.424;2024-01-25T12:37:13;1;1;
85187;PMS5003;75557;51.048;-0.424;2024-01-25T12:39:39;3;3;
85187;PMS5003;75557;51.048;-0.424;2024-01-25T12:42:04;1;1;
85187;PMS5003;75557;51.048;-0.424;2024-01-25T12:44:30;3;2;
85187;PMS5003;75557;51.048;-0.424;2024-01-25T12:46:55;1;1;
85187;PMS5003;75557;51.048;-0.424;2024-01-25T12:49:21;2;1;
85187;PMS5003;75557;51.048;-0.424;2024-01-25T12:51:46;3;2;
85187;PMS5003;75557;51.048;-0.424;2024-01-25T12:54:12;3;3;
85187;PMS5003;75557;51.048;-0.424;2024-01-25T12:56:38;1;1;
85187;PMS5003;75557;51.048;-0.424;2024-01-25T12:59:03;5;2;
85187;PMS5003;75557;51.048;-0.424;2024-01-25T13:01:29;1;1;
85187;PMS5003;75557;51.048;-0.424;2024-01-25T13:03:54;1;0;
85187;PMS5003;75557;51.048;-0.424;2024-01-25T13:06:20;2;1;
85187;PMS5003;75557;51.048;-0.424;2024-01-25T13:08:45;2;2;
85187;PMS5003;75557;51.048;-0.424;2024-01-25T13:11:11;2;2;
85187;PMS5003;75557;51.048;-0.424;2024-01-25T13:13:36;2;1;
85187;PMS5003;75557;51.048;-0.424;2024-01-25T13:16:02;1;1;
85187;PMS5003;75557;51.048;-0.424;2024-01-25T13:18:28;3;1;
85187;PMS5003;75557;51.048;-0.424;2024-01-25T13:20:53;2;1;
85187;PMS5003;75557;51.048;-0.424;2024-01-25T13:23:19;2;1;
85187;PMS5003;75557;51.048;-0.424;2024-01-25T13:25:45;2;2;
85187;PMS5003;75557;51.048;-0.424;2024-01-25T13:28:10;1;1;
85187;PMS5003;75557;51.048;-0.424;2024-01-25T13:30:35;3;3;
85187;PMS5003;75557;51.048;-0.424;2024-01-25T13:33:01;2;2;
85187;PMS5003;75557;51.048;-0.424;2024-01-25T13:35:26;1;1;
85187;PMS5003;75557;51.048;-0.424;2024-01-25T13:37:52;1;1;
85187;PMS5003;75557;51.048;-0.424;2024-01-25T13:40:18;1;0;
85187;PMS5003;75557;51.048;-0.424;2024-01-25T13:42:43;2;1;
85187;PMS5003;75557;51.048;-0.424;2024-01-25T13:45:09;2;2;
85187;PMS5003;75557;51.048;-0.424;2024-01-25T13:47:34;3;2;
85187;PMS5003;75557;51.048;-0.424;2024-01-25T13:50:00;5;1;
85187;PMS5003;75557;51.048;-0.424;2024-01-25T13:52:25;0;0;
85187;PMS5003;75557;51.048;-0.424;2024-01-25T13:54:52;1;1;
85187;PMS5003;75557;51.048;-0.424;2024-01-25T13:57:17;1;1;
85187;PMS5003;75557;51.048;-0.424;2024-01-25T13:59:42;1;1;
85187;PMS5003;75557;51.048;-0.424;2024-01-25T14:02:08;3;2;
85187;PMS5003;75557;51.048;-0.424;2024-01-25T14:04:33;2;2;
85187;PMS5003;75557;51.048;-0.424;2024-01-25T14:06:59;0;0;
85187;PMS5003;75557;51.048;-0.424;2024-01-25T14:09:24;1;1;
85187;PMS5003;75557;51.048;-0.424;2024-01-25T14:11:50;1;1;
85187;PMS5003;75557;51.048;-0.424;2024-01-25T14:14:16;1;1;
85187;PMS5003;75557;51.048;-0.424;2024-01-25T14:16:41;2;2;
85187;PMS5003;75557;51.048;-0.424;2024-01-25T14:19:07;0;0;
85187;PMS5003;75557;51.048;-0.424;2024-01-25T14:21:32;1;1;
85187;PMS5003;75557;51.048;-0.424;2024-01-25T14:23:58;1;1;
85187;PMS5003;75557;51.048;-0.424;2024-01-25T14:26:23;0;0;
85187;PMS5003;75557;51.048;-0.424;2024-01-25T14:28:49;1;1;
85187;PMS5003;75557;51.048;-0.424;2024-01-25T14:31:14;2;2;
85187;PMS5003;75557;51.048;-0.424;2024-01-25T14:33:40;1;1;
85187;PMS5003;75557;51.048;-0.424;2024-01-25T14:36:06;0;0;
85187;PMS5003;75557;51.048;-0.424;2024-01-25T14:38:31;0;0;
85187;PMS5003;75557;51.048;-0.424;2024-01-25T14:40:57;0;0;
85187;PMS5003;75557;51.048;-0.424;2024-01-25T14:43:22;1;1;
85187;PMS5003;75557;51.048;-0.424;2024-01-25T14:45:48;0;0;
85187;PMS5003;75557;51.048;-0.424;2024-01-25T14:48:13;0;0;
85187;PMS5003;75557;51.048;-0.424;2024-01-25T14:50:39;2;1;
85187;PMS5003;75557;51.048;-0.424;2024-01-25T14:53:04;1;0;
85187;PMS5003;75557;51.048;-0.424;2024-01-25T14:55:30;1;0;
85187;PMS5003;75557;51.048;-0.424;2024-01-25T14:57:55;0;0;
85187;PMS5003;75557;51.048;-0.424;2024-01-25T15:00:21;0;0;
85187;PMS5003;75557;51.048;-0.424;2024-01-25T15:02:47;1;1;
85187;PMS5003;75557;51.048;-0.424;2024-01-25T15:05:12;2;1;
85187;PMS5003;75557;51.048;-0.424;2024-01-25T15:07:38;2;1;
85187;PMS5003;75557;51.048;-0.424;2024-01-25T15:10:04;1;1;
85187;PMS5003;75557;51.048;-0.424;2024-01-25T15:12:29;0;0;
85187;PMS5003;75557;51.048;-0.424;2024-01-25T15:14:54;0;0;
85187;PMS5003;75557;51.048;-0.424;2024-01-25T15:17:20;0;0;
85187;PMS5003;75557;51.048;-0.424;2024-01-25T15:19:45;2;2;
85187;PMS5003;75557;51.048;-0.424;2024-01-25T15:22:11;3;1;
85187;PMS5003;75557;51.048;-0.424;2024-01-25T15:24:37;2;0;
85187;PMS5003;75557;51.048;-0.424;2024-01-25T15:27:03;0;0;
85187;PMS5003;75557;51.048;-0.424;2024-01-25T15:29:28;1;1;
85187;PMS5003;75557;51.048;-0.424;2024-01-25T15:31:53;0;0;
85187;PMS5003;75557;51.048;-0.424;2024-01-25T15:34:19;1;1;
85187;PMS5003;75557;51.048;-0.424;2024-01-25T15:36:44;0;0;
85187;PMS5003;75557;51.048;-0.424;2024-01-25T15:39:10;0;0;
85187;PMS5003;75557;51.048;-0.424;2024-01-25T15:41:36;1;0;
85187;PMS5003;75557;51.048;-0.424;2024-01-25T15:44:01;0;0;
85187;PMS5003;75557;51.048;-0.424;2024-01-25T15:46:27;1;0;
85187;PMS5003;75557;51.048;-0.424;2024-01-25T15:48:52;0;0;
85187;PMS5003;75557;51.048;-0.424;2024-01-25T15:51:18;2;1;
85187;PMS5003;75557;51.048;-0.424;2024-01-25T15:53:43;1;1;
85187;PMS5003;75557;51.048;-0.424;2024-01-25T15:56:09;1;1;
85187;PMS5003;75557;51.048;-0.424;2024-01-25T15:58:34;1;1;
85187;PMS5003;75557;51.048;-0.424;2024-01-25T16:01:00;0;0;
85187;PMS5003;75557;51.048;-0.424;2024-01-25T16:03:26;1;1;
85187;PMS5003;75557;51.048;-0.424;2024-01-25T16:05:51;0;0;
85187;PMS5003;75557;51.048;-0.424;2024-01-25T16:08:17;1;0;
85187;PMS5003;75557;51.048;-0.424;2024-01-25T16:10:42;2;0;
85187;PMS5003;75557;51.048;-0.424;2024-01-25T16:13:08;0;0;
85187;PMS5003;75557;51.048;-0.424;2024-01-25T16:15:33;1;1;
85187;PMS5003;75557;51.048;-0.424;2024-01-25T16:17:59;2;2;
85187;PMS5003;75557;51.048;-0.424;2024-01-25T16:20:24;0;0;